Time;durP1;ratioP1;P1;durP2;ratioP2;P2;SDS_P1;SDS_P2;PMS_P1;PMS_P2;Temp;Humidity;BMP_temperature;BMP_pressure;BME280_temperature;BME280_humidity;BME280_pressure;Samples;Min_cycle;Max_cycle;Signal;HPM_P1;HPM_P2
2022/01/01 00:00:08;;;;;;;177.52;107.85;;;;;;;4.73;85.40;95658.97;5002955;28;20044;-65
2022/01/01 00:02:34;;;;;;;174.82;104.30;;;;;;;4.84;84.50;95668.91;5002899;28;20062;-63
2022/01/01 00:05:00;;;;;;;174.30;109.07;;;;;;;4.86;84.34;95672.22;5003287;28;20073;-67
2022/01/01 00:07:26;;;;;;;167.40;104.90;;;;;;;4.96;84.21;95676.16;5003114;28;20103;-64
2022/01/01 00:09:51;;;;;;;169.80;104.90;;;;;;;4.94;83.60;95672.84;4995718;28;20433;-68
2022/01/01 00:12:18;;;;;;;162.05;100.78;;;;;;;4.96;83.63;95660.00;5002852;28;20041;-65
2022/01/01 00:14:44;;;;;;;164.73;104.28;;;;;;;4.90;83.42;95643.16;5002967;28;20409;-66
2022/01/01 00:17:10;;;;;;;158.10;99.70;;;;;;;4.99;83.46;95666.75;5003727;28;20057;-65
2022/01/01 00:19:36;;;;;;;162.98;99.72;;;;;;;4.85;83.87;95639.88;5003181;28;20038;-63
2022/01/01 00:22:02;;;;;;;152.13;91.00;;;;;;;5.10;83.25;95668.09;5004372;28;20034;-64
2022/01/01 00:24:31;;;;;;;144.27;93.00;;;;;;;4.96;82.83;95631.91;5003603;28;20049;-64
2022/01/01 00:26:56;;;;;;;154.07;95.68;;;;;;;5.00;82.67;95643.72;5003598;28;20037;-66
2022/01/01 00:29:21;;;;;;;149.55;94.70;;;;;;;5.11;82.60;95654.41;5003785;28;20038;-60
2022/01/01 00:31:47;;;;;;;145.98;95.03;;;;;;;4.75;82.82;95606.09;5003629;28;20045;-65
2022/01/01 00:34:12;;;;;;;147.13;96.53;;;;;;;5.06;82.55;95658.84;4995592;28;20081;-64
2022/01/01 00:36:39;;;;;;;165.02;100.18;;;;;;;4.81;82.73;95622.16;5002013;28;20053;-70
2022/01/01 00:39:05;;;;;;;153.45;96.50;;;;;;;4.84;83.29;95651.00;5003903;28;20069;-70
2022/01/01 00:41:31;;;;;;;152.18;96.05;;;;;;;4.75;82.90;95644.44;5002815;28;20080;-69
2022/01/01 00:43:57;;;;;;;153.15;92.78;;;;;;;4.52;83.84;95611.09;5002498;28;20041;-63
2022/01/01 00:46:22;;;;;;;147.43;91.80;;;;;;;4.60;84.42;95637.25;5003076;28;20113;-67
2022/01/01 00:48:48;;;;;;;151.65;92.70;;;;;;;4.86;84.04;95656.91;5001994;28;20053;-67
2022/01/01 00:51:13;;;;;;;146.40;95.20;;;;;;;4.88;84.10;95636.41;5002589;28;20069;-68
2022/01/01 00:53:39;;;;;;;130.77;80.88;;;;;;;4.76;83.71;95607.78;5003119;28;20034;-66
2022/01/01 00:56:04;;;;;;;146.32;91.63;;;;;;;4.73;83.59;95612.16;5004108;28;20193;-63
2022/01/01 00:58:30;;;;;;;143.20;88.40;;;;;;;4.83;84.32;95648.50;5000737;28;20414;-65
2022/01/01 01:00:55;;;;;;;143.88;89.93;;;;;;;4.76;84.45;95633.34;5003427;28;20063;-63
2022/01/01 01:03:21;;;;;;;140.73;89.25;;;;;;;3.92;85.06;95492.84;4999451;28;20034;-64
2022/01/01 01:05:47;;;;;;;148.38;91.25;;;;;;;4.71;84.92;95631.81;5003991;28;20034;-66
2022/01/01 01:08:15;;;;;;;140.43;87.28;;;;;;;4.72;84.70;95624.13;5004038;28;20068;-67
2022/01/01 01:10:44;;;;;;;146.38;90.50;;;;;;;4.57;85.93;95606.69;5003789;28;20025;-69
2022/01/01 01:13:10;;;;;;;157.25;94.32;;;;;;;4.58;86.33;95619.41;5008084;28;20076;-65
2022/01/01 01:15:35;;;;;;;153.05;93.00;;;;;;;4.42;85.87;95607.97;5009816;28;20689;-67
2022/01/01 01:18:04;;;;;;;153.63;95.72;;;;;;;4.28;86.75;95599.88;5009666;28;20037;-64
2022/01/01 01:20:31;;;;;;;146.60;93.70;;;;;;;4.39;87.39;95637.00;5010166;28;20117;-64
2022/01/01 01:22:56;;;;;;;155.30;96.32;;;;;;;4.41;87.23;95626.72;5003871;28;20053;-63
2022/01/01 01:25:25;;;;;;;141.75;86.63;;;;;;;4.42;86.89;95600.31;5007363;28;20405;-63
2022/01/01 01:27:50;;;;;;;148.50;90.43;;;;;;;4.59;87.15;95633.84;5006378;28;20029;-66
2022/01/01 01:30:17;;;;;;;138.38;84.45;;;;;;;4.64;86.32;95643.94;5007598;28;20357;-64
2022/01/01 01:32:44;;;;;;;150.73;87.15;;;;;;;4.02;86.49;95550.44;5006526;28;20038;-65
2022/01/01 01:35:10;;;;;;;140.05;89.25;;;;;;;4.31;86.67;95574.25;5004528;28;20030;-66
2022/01/01 01:37:36;;;;;;;144.52;86.50;;;;;;;4.69;86.41;95652.31;5009951;28;20033;-69
2022/01/01 01:40:04;;;;;;;142.75;89.18;;;;;;;4.70;86.03;95642.91;5010822;28;20030;-67
2022/01/01 01:42:30;;;;;;;143.88;88.13;;;;;;;4.65;86.74;95624.34;5010418;28;20022;-68
2022/01/01 01:44:57;;;;;;;138.10;84.60;;;;;;;4.92;85.70;95650.75;5010247;28;20033;-66
2022/01/01 01:47:33;;;;;;;140.38;84.97;;;;;;;4.91;84.58;95642.25;5010398;28;20022;-67
2022/01/01 01:50:01;;;;;;;135.32;80.20;;;;;;;4.73;84.97;95607.88;5009951;28;20030;-64
2022/01/01 01:52:31;;;;;;;135.10;81.78;;;;;;;4.83;85.59;95633.16;5010325;28;20026;-66
2022/01/01 01:54:57;;;;;;;138.60;83.10;;;;;;;4.78;85.08;95633.28;5010498;28;20054;-66
2022/01/01 01:57:23;;;;;;;128.35;80.00;;;;;;;4.75;85.17;95639.31;5009941;28;20512;-67
2022/01/01 01:59:51;;;;;;;142.15;81.10;;;;;;;4.62;85.76;95624.41;5010207;28;20030;-64
2022/01/01 02:02:17;;;;;;;136.07;81.00;;;;;;;4.70;85.52;95627.59;5009778;28;20029;-66
2022/01/01 02:04:43;;;;;;;118.93;71.57;;;;;;;4.66;85.44;95620.91;5010328;28;20480;-68
2022/01/01 02:07:09;;;;;;;112.43;69.53;;;;;;;4.52;86.06;95621.31;5010076;28;20033;-65
2022/01/01 02:09:35;;;;;;;111.25;63.92;;;;;;;4.55;86.73;95624.59;5010070;28;20026;-64
2022/01/01 02:12:08;;;;;;;91.20;54.63;;;;;;;4.60;86.93;95622.75;5010271;28;20030;-65
2022/01/01 02:15:08;;;;;;;94.50;57.30;;;;;;;4.54;86.38;95622.09;5009531;28;20679;-64
2022/01/01 02:17:33;;;;;;;62.50;39.97;;;;;;;4.53;86.94;95618.72;5010115;28;20766;-65
2022/01/01 02:20:14;;;;;;;69.95;43.47;;;;;;;4.51;86.52;95612.81;5009582;28;20034;-66
2022/01/01 02:22:47;;;;;;;70.93;43.10;;;;;;;4.28;87.06;95579.44;5009655;28;20026;-64
2022/01/01 02:25:15;;;;;;;69.53;44.40;;;;;;;4.30;87.16;95593.03;5008364;28;20041;-68
2022/01/01 02:27:42;;;;;;;72.75;43.60;;;;;;;4.40;87.60;95618.22;5009448;28;20105;-67
2022/01/01 02:30:10;;;;;;;73.47;46.13;;;;;;;4.45;87.20;95623.22;5009337;28;20026;-67
2022/01/01 02:32:36;;;;;;;73.05;45.67;;;;;;;4.43;87.28;95619.88;5009545;28;20424;-68
2022/01/01 02:35:03;;;;;;;72.55;45.20;;;;;;;4.42;87.44;95613.91;5008994;28;20034;-63
2022/01/01 02:37:31;;;;;;;75.05;45.33;;;;;;;4.31;87.36;95604.88;5009685;28;20033;-64
2022/01/01 02:39:57;;;;;;;75.90;46.85;;;;;;;4.45;87.57;95607.06;5009115;28;20128;-63
2022/01/01 02:42:23;;;;;;;79.75;46.47;;;;;;;4.46;87.58;95607.00;5009651;28;20018;-68
2022/01/01 02:44:50;;;;;;;78.03;48.83;;;;;;;4.22;87.43;95573.63;5009375;28;20463;-69
2022/01/01 02:47:17;;;;;;;84.38;52.08;;;;;;;4.49;87.10;95603.50;5009389;28;20121;-64
2022/01/01 02:49:42;;;;;;;78.28;49.85;;;;;;;4.38;86.71;95581.69;5008683;28;20416;-64
2022/01/01 02:52:08;;;;;;;79.97;49.90;;;;;;;4.20;86.41;95541.41;5009123;28;20026;-66
2022/01/01 02:54:33;;;;;;;85.63;52.13;;;;;;;4.22;86.29;95545.56;5009071;28;20034;-66
2022/01/01 02:56:59;;;;;;;83.82;51.63;;;;;;;4.52;86.44;95595.75;5008816;28;20049;-67
2022/01/01 02:59:24;;;;;;;89.75;54.60;;;;;;;4.47;86.63;95590.78;5009124;28;20026;-65
2022/01/01 03:01:49;;;;;;;95.75;57.15;;;;;;;4.45;86.61;95596.84;5008344;28;20085;-67
2022/01/01 03:04:16;;;;;;;96.63;57.33;;;;;;;4.45;86.08;95592.56;5008951;28;20030;-69
2022/01/01 03:06:41;;;;;;;101.20;64.43;;;;;;;3.93;84.81;95486.88;5008856;28;20315;-66
2022/01/01 03:09:07;;;;;;;99.10;58.47;;;;;;;4.73;82.43;95574.66;5007532;28;20091;-66
2022/01/01 03:11:33;;;;;;;100.10;61.03;;;;;;;4.69;82.38;95575.66;5008730;28;20113;-65
2022/01/01 03:13:58;;;;;;;103.85;61.55;;;;;;;4.64;82.61;95566.44;5008365;28;20069;-66
2022/01/01 03:16:24;;;;;;;105.72;63.28;;;;;;;4.57;82.59;95566.63;5008764;28;20022;-64
2022/01/01 03:18:49;;;;;;;92.20;58.65;;;;;;;4.40;82.83;95554.38;5008672;28;20489;-65
2022/01/01 03:21:14;;;;;;;101.38;61.20;;;;;;;4.49;83.48;95583.09;5008707;28;20072;-65
2022/01/01 03:23:40;;;;;;;103.00;60.25;;;;;;;3.98;83.59;95493.50;5008875;28;20038;-64
2022/01/01 03:26:05;;;;;;;99.28;57.55;;;;;;;4.55;84.17;95577.78;5007891;28;20030;-65
2022/01/01 03:28:31;;;;;;;92.72;57.75;;;;;;;4.15;82.37;95487.91;5008747;28;20061;-64
2022/01/01 03:30:57;;;;;;;98.53;57.85;;;;;;;4.72;82.27;95577.28;5008591;28;20083;-65
2022/01/01 03:33:22;;;;;;;98.43;56.65;;;;;;;4.76;81.84;95573.75;5008800;28;20030;-66
2022/01/01 03:35:48;;;;;;;97.80;59.92;;;;;;;4.52;82.02;95545.50;5007769;28;20034;-66
2022/01/01 03:38:15;;;;;;;94.30;59.42;;;;;;;4.61;82.14;95564.84;5008342;28;20045;-66
2022/01/01 03:40:40;;;;;;;99.35;60.90;;;;;;;4.65;81.90;95565.59;5008338;28;20029;-65
2022/01/01 03:43:06;;;;;;;100.90;59.58;;;;;;;4.56;82.34;95552.22;5008390;28;20083;-65
2022/01/01 03:45:31;;;;;;;93.82;60.50;;;;;;;4.78;82.13;95584.75;5007257;28;20417;-66
2022/01/01 03:47:57;;;;;;;104.13;63.38;;;;;;;4.28;81.67;95483.28;5008223;28;20037;-66
2022/01/01 03:50:22;;;;;;;95.50;57.63;;;;;;;4.90;81.41;95578.41;5007921;28;20041;-65
2022/01/01 03:52:48;;;;;;;96.35;61.38;;;;;;;4.83;81.35;95582.88;5006820;28;20034;-63
2022/01/01 03:55:14;;;;;;;94.82;57.25;;;;;;;4.77;81.56;95580.50;5008590;28;20037;-65
2022/01/01 03:57:40;;;;;;;94.57;58.42;;;;;;;4.93;81.17;95556.13;5008022;28;20426;-65
2022/01/01 04:00:09;;;;;;;90.18;54.28;;;;;;;4.57;79.84;95494.28;5008083;28;20042;-65
2022/01/01 04:02:35;;;;;;;87.95;53.55;;;;;;;4.79;80.35;95553.22;5007703;28;20038;-65
2022/01/01 04:05:01;;;;;;;86.75;54.25;;;;;;;4.36;80.42;95498.34;5008108;28;20045;-66
2022/01/01 04:07:26;;;;;;;91.97;55.22;;;;;;;4.72;81.14;95544.91;5008284;28;20108;-64
2022/01/01 04:09:52;;;;;;;87.88;54.85;;;;;;;4.54;81.46;95522.47;5008191;28;20113;-65
2022/01/01 04:12:17;;;;;;;90.28;54.22;;;;;;;4.60;81.57;95535.88;5008435;28;20026;-67
2022/01/01 04:14:43;;;;;;;85.25;52.50;;;;;;;4.67;81.71;95545.91;5007842;28;20049;-67
2022/01/01 04:17:12;;;;;;;90.10;54.15;;;;;;;4.71;81.42;95548.34;5008150;28;20481;-66
2022/01/01 04:19:39;;;;;;;88.05;52.95;;;;;;;4.62;81.59;95533.28;5008294;28;20033;-65
2022/01/01 04:22:09;;;;;;;92.75;52.22;;;;;;;4.63;82.20;95534.97;5007830;28;20018;-67
2022/01/01 04:24:35;;;;;;;81.65;51.83;;;;;;;4.48;81.98;95500.53;5008072;28;20518;-65
2022/01/01 04:27:02;;;;;;;86.18;53.15;;;;;;;4.72;81.89;95539.81;5007525;28;20033;-64
2022/01/01 04:29:28;;;;;;;84.78;50.70;;;;;;;4.72;82.16;95537.25;5007870;28;20089;-65
2022/01/01 04:31:54;;;;;;;88.22;52.38;;;;;;;4.64;81.36;95498.34;5007835;28;20033;-68
2022/01/01 04:34:20;;;;;;;81.18;47.60;;;;;;;4.91;81.06;95528.97;5008026;28;20137;-65
2022/01/01 04:36:55;;;;;;;67.15;45.05;;;;;;;4.99;80.87;95528.75;5007773;28;20033;-64
2022/01/01 04:39:21;;;;;;;69.97;44.10;;;;;;;4.84;80.83;95495.13;5007834;28;20029;-66
2022/01/01 04:41:46;;;;;;;68.10;41.13;;;;;;;4.73;80.90;95490.34;5007793;28;20075;-66
2022/01/01 04:44:12;;;;;;;65.88;42.78;;;;;;;4.68;81.18;95493.97;5007595;28;20125;-64
2022/01/01 04:46:37;;;;;;;67.60;42.28;;;;;;;4.56;81.74;95488.34;5007925;28;20033;-65
2022/01/01 04:49:03;;;;;;;67.88;42.22;;;;;;;4.52;82.35;95504.66;5011218;28;20022;-65
2022/01/01 04:51:28;;;;;;;74.82;42.75;;;;;;;4.68;82.83;95524.63;5009419;28;20069;-64
2022/01/01 04:53:59;;;;;;;64.32;40.63;;;;;;;4.74;82.67;95521.88;5010599;28;20681;-64
2022/01/01 04:56:25;;;;;;;70.13;45.80;;;;;;;4.85;82.12;95514.66;5011609;28;20026;-65
2022/01/01 04:58:50;;;;;;;71.45;41.70;;;;;;;4.43;81.53;95430.91;5011401;28;20033;-65
2022/01/01 05:01:16;;;;;;;61.83;38.28;;;;;;;4.94;81.82;95496.47;5011310;28;20026;-65
2022/01/01 05:03:41;;;;;;;61.05;39.20;;;;;;;4.81;82.03;95496.97;5011503;28;20121;-65
2022/01/01 05:06:07;;;;;;;68.70;40.80;;;;;;;4.95;82.20;95523.72;5011892;28;20034;-66
2022/01/01 05:08:32;;;;;;;68.55;40.55;;;;;;;5.02;82.11;95523.50;5011840;28;20464;-64
2022/01/01 05:10:58;;;;;;;65.40;40.35;;;;;;;5.06;81.84;95531.03;5011745;28;20477;-64
2022/01/01 05:13:23;;;;;;;73.75;43.42;;;;;;;5.04;81.99;95530.25;5011662;28;20034;-65
2022/01/01 05:15:50;;;;;;;67.25;40.00;;;;;;;4.82;81.58;95524.16;5011211;28;20026;-64
2022/01/01 05:18:16;;;;;;;69.35;42.55;;;;;;;4.87;81.60;95546.13;5011558;28;20029;-65
2022/01/01 05:20:41;;;;;;;66.63;43.35;;;;;;;4.99;81.68;95537.22;5011560;28;20041;-65
2022/01/01 05:23:07;;;;;;;64.53;40.35;;;;;;;5.02;81.00;95514.13;5011303;28;20108;-66
2022/01/01 05:25:32;;;;;;;62.15;38.17;;;;;;;5.10;80.45;95517.28;5011608;28;20026;-66
2022/01/01 05:27:58;;;;;;;53.90;33.40;;;;;;;5.43;80.26;95557.09;5042763;28;20474;-63
2022/01/01 05:30:23;;;;;;;46.80;29.02;;;;;;;5.50;79.45;95553.44;5011292;28;20433;-69
2022/01/01 05:32:49;;;;;;;65.97;39.42;;;;;;;5.51;79.50;95565.34;5011296;28;20519;-66
2022/01/01 05:35:14;;;;;;;66.28;41.90;;;;;;;5.43;79.48;95567.34;5011292;28;20496;-64
2022/01/01 05:37:40;;;;;;;61.78;39.10;;;;;;;5.40;79.86;95588.72;5010859;28;20022;-67
2022/01/01 05:40:06;;;;;;;61.85;37.97;;;;;;;5.23;79.73;95578.19;5010512;28;20041;-66
2022/01/01 05:42:32;;;;;;;61.97;40.00;;;;;;;5.25;79.97;95596.91;5042834;28;20719;-65
2022/01/01 05:44:57;;;;;;;59.90;37.00;;;;;;;5.09;81.07;95588.91;5011047;28;20034;-65
2022/01/01 05:47:23;;;;;;;58.80;37.17;;;;;;;4.85;81.30;95558.09;5010951;28;20100;-65
2022/01/01 05:49:49;;;;;;;61.28;38.42;;;;;;;4.69;82.03;95556.91;5010521;28;20473;-64
2022/01/01 05:52:14;;;;;;;68.03;39.78;;;;;;;4.63;82.49;95559.69;5010817;28;20041;-64
2022/01/01 05:54:39;;;;;;;66.72;40.35;;;;;;;4.45;82.99;95545.75;5010801;28;20062;-65
2022/01/01 05:57:06;;;;;;;48.20;29.80;;;;;;;4.75;83.96;95572.06;5010524;28;20073;-67
2022/01/01 05:59:31;;;;;;;52.20;31.88;;;;;;;4.66;83.88;95562.16;5009966;28;20030;-66
2022/01/01 06:01:57;;;;;;;51.00;33.03;;;;;;;4.18;83.52;95487.84;5010260;28;20125;-64
2022/01/01 06:04:22;;;;;;;47.50;29.98;;;;;;;4.46;84.32;95537.19;5010727;28;20551;-65
2022/01/01 06:06:48;;;;;;;55.35;32.53;;;;;;;4.69;84.60;95572.25;5010750;28;20106;-65
2022/01/01 06:09:13;;;;;;;52.10;34.45;;;;;;;4.64;84.75;95566.44;5010571;28;20022;-65
2022/01/01 06:11:38;;;;;;;59.15;33.67;;;;;;;4.70;84.75;95569.66;5010506;28;20022;-64
2022/01/01 06:14:04;;;;;;;56.83;36.80;;;;;;;4.76;84.54;95568.63;5010055;28;20034;-65
2022/01/01 06:16:29;;;;;;;55.97;36.35;;;;;;;4.76;84.04;95554.13;5010724;28;20033;-63
2022/01/01 06:18:55;;;;;;;63.05;37.30;;;;;;;4.96;83.84;95573.13;5010513;28;20033;-64
2022/01/01 06:21:20;;;;;;;57.50;37.45;;;;;;;5.08;82.69;95570.19;5010544;28;20109;-65
2022/01/01 06:23:46;;;;;;;60.05;38.13;;;;;;;5.08;82.45;95566.75;5010273;28;20558;-66
2022/01/01 06:26:11;;;;;;;60.80;37.60;;;;;;;5.07;82.16;95540.38;5010023;28;20030;-65
2022/01/01 06:28:37;;;;;;;52.13;32.45;;;;;;;4.91;81.71;95486.38;5010237;28;20026;-66
2022/01/01 06:31:02;;;;;;;52.60;32.75;;;;;;;5.38;80.12;95520.59;5010160;28;20095;-65
2022/01/01 06:33:27;;;;;;;59.03;35.85;;;;;;;5.29;79.43;95502.13;5010224;28;20088;-66
2022/01/01 06:35:55;;;;;;;61.70;38.10;;;;;;;5.58;78.62;95541.22;5010222;28;20022;-64
2022/01/01 06:38:21;;;;;;;61.00;36.67;;;;;;;5.77;79.07;95576.38;5009693;28;20192;-65
2022/01/01 06:40:46;;;;;;;60.03;38.08;;;;;;;5.82;78.58;95569.38;5009815;28;20100;-65
2022/01/01 06:43:15;;;;;;;56.60;38.30;;;;;;;5.94;78.34;95592.00;5010134;28;20030;-64
2022/01/01 06:45:41;;;;;;;63.88;40.90;;;;;;;5.96;77.80;95597.06;5010185;28;20077;-65
2022/01/01 06:48:06;;;;;;;67.05;43.22;;;;;;;5.87;77.36;95565.78;5010005;28;20040;-65
2022/01/01 06:50:32;;;;;;;71.50;45.35;;;;;;;5.89;77.23;95587.03;5009432;28;20038;-65
2022/01/01 06:52:58;;;;;;;68.25;44.17;;;;;;;5.99;77.24;95600.38;5010111;28;20545;-65
2022/01/01 06:55:24;;;;;;;61.13;40.22;;;;;;;5.96;77.34;95605.59;5009756;28;20117;-66
2022/01/01 06:57:50;;;;;;;59.85;38.53;;;;;;;5.88;77.41;95584.50;5009916;28;20179;-65
2022/01/01 07:00:16;;;;;;;52.47;33.30;;;;;;;5.88;77.11;95559.75;5009868;28;20773;-67
2022/01/01 07:02:43;;;;;;;56.70;34.53;;;;;;;5.92;76.90;95559.63;5009421;28;20057;-65
2022/01/01 07:05:10;;;;;;;51.85;33.88;;;;;;;6.16;76.72;95574.13;5009713;28;20378;-66
2022/01/01 07:07:36;;;;;;;31.90;23.25;;;;;;;6.12;76.88;95541.03;5009312;28;20044;-68
2022/01/01 07:10:07;;;;;;;37.63;23.75;;;;;;;6.04;76.56;95510.59;5008494;28;20057;-65
2022/01/01 07:12:36;;;;;;;33.97;21.95;;;;;;;6.40;76.13;95584.38;5009479;28;20033;-64
2022/01/01 07:15:03;;;;;;;33.17;21.13;;;;;;;6.28;76.28;95557.50;5008665;28;20030;-64
2022/01/01 07:17:29;;;;;;;32.92;22.27;;;;;;;6.21;76.15;95550.94;5002458;28;20030;-65
2022/01/01 07:19:54;;;;;;;32.95;21.88;;;;;;;6.04;76.46;95549.81;5008258;28;20096;-63
2022/01/01 07:22:20;;;;;;;31.27;22.58;;;;;;;6.36;76.48;95608.44;5009088;28;20028;-66
2022/01/01 07:24:45;;;;;;;36.20;23.85;;;;;;;6.39;76.55;95606.59;5009290;28;20034;-65
2022/01/01 07:27:12;;;;;;;33.13;23.38;;;;;;;6.33;76.23;95583.78;5009152;28;20029;-65
2022/01/01 07:29:38;;;;;;;34.03;22.63;;;;;;;5.97;76.01;95527.91;5009630;28;20342;-64
2022/01/01 07:32:03;;;;;;;37.40;24.90;;;;;;;6.29;76.50;95579.66;5009198;28;20528;-65
2022/01/01 07:34:29;;;;;;;33.88;21.95;;;;;;;6.50;76.27;95592.56;5009337;28;20112;-65
2022/01/01 07:36:54;;;;;;;33.17;22.42;;;;;;;6.58;76.21;95591.38;5009259;28;20026;-66
2022/01/01 07:39:20;;;;;;;29.10;20.55;;;;;;;6.77;76.02;95613.72;5008658;28;20122;-64
2022/01/01 07:41:46;;;;;;;30.10;20.80;;;;;;;6.86;75.64;95610.81;5009318;28;20025;-66
2022/01/01 07:44:13;;;;;;;33.95;24.60;;;;;;;6.90;75.64;95622.59;5009094;28;20686;-69
2022/01/01 07:46:39;;;;;;;31.95;20.98;;;;;;;7.05;75.02;95600.69;5009149;28;20469;-66
2022/01/01 07:49:04;;;;;;;30.33;19.33;;;;;;;7.43;74.45;95621.38;5007786;28;20033;-64
2022/01/01 07:51:30;;;;;;;24.45;17.38;;;;;;;7.67;73.84;95614.41;5008665;28;20030;-64
2022/01/01 07:53:55;;;;;;;28.50;18.85;;;;;;;7.91;73.03;95602.25;5009021;28;20389;-66
2022/01/01 07:56:20;;;;;;;26.25;18.63;;;;;;;8.23;72.14;95592.31;5008732;28;20048;-65
2022/01/01 07:58:46;;;;;;;27.27;17.33;;;;;;;8.60;70.28;95597.53;5009186;28;20038;-65
2022/01/01 08:01:11;;;;;;;23.33;15.38;;;;;;;9.12;69.71;95594.28;5008703;28;20037;-65
2022/01/01 08:03:37;;;;;;;20.85;15.75;;;;;;;9.46;67.87;95582.31;5008347;28;20038;-68
2022/01/01 08:06:02;;;;;;;19.10;13.10;;;;;;;9.86;66.72;95582.91;5008867;28;20514;-66
2022/01/01 08:08:28;;;;;;;12.85;9.18;;;;;;;10.19;65.44;95589.78;5008971;28;20536;-66
2022/01/01 08:10:53;;;;;;;12.90;7.40;;;;;;;10.38;64.42;95562.16;5008654;28;20021;-67
2022/01/01 08:13:24;;;;;;;9.38;6.60;;;;;;;10.76;63.48;95582.47;5008877;28;20032;-65
2022/01/01 08:15:50;;;;;;;10.20;5.97;;;;;;;10.98;62.74;95586.44;5008107;28;20037;-66
2022/01/01 08:18:16;;;;;;;9.65;5.82;;;;;;;10.94;62.68;95572.06;5008800;28;20037;-66
2022/01/01 08:20:41;;;;;;;8.55;6.75;;;;;;;10.97;62.43;95567.56;5008263;28;20160;-64
2022/01/01 08:23:07;;;;;;;8.40;5.57;;;;;;;11.07;62.71;95575.63;5011991;28;20125;-66
2022/01/01 08:25:33;;;;;;;9.35;6.20;;;;;;;11.06;62.76;95562.78;5012498;28;20489;-65
2022/01/01 08:27:59;;;;;;;8.55;6.30;;;;;;;11.29;62.32;95574.41;5012250;28;20038;-65
2022/01/01 08:30:24;;;;;;;10.18;5.90;;;;;;;11.49;61.70;95589.56;5012583;28;20432;-64
2022/01/01 08:32:50;;;;;;;9.38;5.80;;;;;;;12.25;59.54;95591.19;5012470;28;20038;-65
2022/01/01 08:35:15;;;;;;;7.70;4.95;;;;;;;13.34;55.16;95547.28;5012576;28;20160;-66
2022/01/01 08:37:41;;;;;;;6.55;4.60;;;;;;;13.72;54.22;95587.13;5012953;28;20087;-66
2022/01/01 08:40:07;;;;;;;7.90;4.30;;;;;;;13.98;51.89;95477.31;5012127;28;20482;-65
2022/01/01 08:42:33;;;;;;;8.10;4.78;;;;;;;16.46;47.22;95559.75;5012204;28;20033;-66
2022/01/01 08:44:58;;;;;;;5.65;4.03;;;;;;;18.85;40.45;95534.91;5012186;28;20464;-67
2022/01/01 08:47:26;;;;;;;5.10;3.38;;;;;;;19.68;37.54;95538.91;5012207;28;20433;-65
2022/01/01 08:49:54;;;;;;;5.38;3.22;;;;;;;20.56;36.24;95578.78;5011685;28;20022;-64
2022/01/01 08:52:21;;;;;;;4.72;3.20;;;;;;;18.53;39.17;95550.75;5012008;28;20034;-66
2022/01/01 08:54:46;;;;;;;3.88;2.90;;;;;;;19.23;38.84;95589.97;5012289;28;20048;-65
2022/01/01 08:57:12;;;;;;;4.93;3.20;;;;;;;19.79;36.91;95571.03;5011554;28;20420;-65
2022/01/01 08:59:37;;;;;;;4.32;3.05;;;;;;;18.72;39.11;95599.59;5011882;28;20057;-65
2022/01/01 09:02:03;;;;;;;5.40;3.78;;;;;;;19.14;38.70;95598.66;5011381;28;20036;-65
2022/01/01 09:04:29;;;;;;;4.82;3.20;;;;;;;17.66;40.01;95551.94;5011366;28;20045;-64
2022/01/01 09:06:54;;;;;;;6.28;3.10;;;;;;;16.82;42.58;95572.59;5011271;28;20041;-63
2022/01/01 09:09:19;;;;;;;5.00;3.53;;;;;;;16.98;43.08;95578.25;5011359;28;20072;-62
2022/01/01 09:11:45;;;;;;;4.88;3.00;;;;;;;16.77;44.04;95608.59;5011196;28;20096;-61
2022/01/01 09:14:12;;;;;;;4.15;2.80;;;;;;;16.27;44.08;95601.97;5003463;28;20104;-73
2022/01/01 09:16:37;;;;;;;5.95;3.75;;;;;;;19.97;37.56;95602.53;5007438;28;20034;-71
2022/01/01 09:19:05;;;;;;;5.40;2.72;;;;;;;21.17;33.84;95606.25;5007504;28;20053;-70
2022/01/01 09:21:31;;;;;;;5.30;3.03;;;;;;;23.56;29.88;95591.94;5007505;28;20087;-72
2022/01/01 09:23:57;;;;;;;6.22;3.75;;;;;;;25.97;26.54;95587.34;5006671;28;20038;-72
2022/01/01 09:26:23;;;;;;;5.82;4.47;;;;;;;27.68;24.36;95606.72;5006149;28;20033;-74
2022/01/01 09:28:49;;;;;;;4.70;3.42;;;;;;;28.55;22.27;95576.44;5005637;28;20111;-74
2022/01/01 09:31:15;;;;;;;5.50;3.78;;;;;;;29.27;21.56;95573.50;5006321;28;20505;-71
2022/01/01 09:33:40;;;;;;;5.05;3.78;;;;;;;29.15;21.81;95608.59;5007938;28;20212;-75
2022/01/01 09:36:06;;;;;;;4.65;3.47;;;;;;;28.81;22.43;95606.81;5008419;28;20777;-73
2022/01/01 09:38:33;;;;;;;5.43;3.28;;;;;;;26.01;24.73;95615.88;5007845;28;20485;-75
2022/01/01 09:41:00;;;;;;;4.55;2.80;;;;;;;24.75;26.16;95620.34;5010440;28;20099;-74
2022/01/01 09:43:27;;;;;;;4.88;3.53;;;;;;;23.81;28.09;95611.22;5007814;28;20026;-72
2022/01/01 09:45:54;;;;;;;5.32;3.80;;;;;;;21.31;32.33;95623.25;5007052;28;20512;-74
2022/01/01 09:48:21;;;;;;;5.75;3.95;;;;;;;20.56;33.90;95639.88;5005523;28;20449;-73
2022/01/01 09:50:49;;;;;;;5.60;3.75;;;;;;;19.58;35.86;95620.84;5005791;28;20102;-74
2022/01/01 09:53:16;;;;;;;4.93;3.58;;;;;;;19.56;35.50;95564.41;5007976;28;20037;-75
2022/01/01 09:55:42;;;;;;;5.15;3.28;;;;;;;17.85;39.40;95633.88;5007088;28;20033;-75
2022/01/01 09:58:11;;;;;;;4.97;3.03;;;;;;;15.96;42.92;95567.88;5006924;28;20069;-72
2022/01/01 10:00:37;;;;;;;6.65;3.78;;;;;;;15.52;45.99;95644.78;5006767;28;20044;-72
2022/01/01 10:03:02;;;;;;;5.63;3.83;;;;;;;14.89;47.87;95652.69;5006696;28;20065;-72
2022/01/01 10:05:28;;;;;;;6.68;4.18;;;;;;;14.27;48.35;95593.78;5007297;28;20038;-74
2022/01/01 10:07:54;;;;;;;5.32;3.80;;;;;;;14.04;50.18;95617.88;5007214;28;20030;-76
2022/01/01 10:10:22;;;;;;;6.43;4.32;;;;;;;14.11;51.20;95652.81;5006591;28;20862;-72
2022/01/01 10:12:48;;;;;;;5.97;4.15;;;;;;;14.02;51.49;95661.22;5005657;28;20045;-71
2022/01/01 10:15:14;;;;;;;6.00;4.35;;;;;;;13.93;52.68;95650.53;5006204;28;20017;-70
2022/01/01 10:17:40;;;;;;;5.53;3.95;;;;;;;14.09;52.35;95655.53;5006407;28;20042;-73
2022/01/01 10:20:08;;;;;;;7.97;3.80;;;;;;;14.09;52.23;95633.97;5007406;28;20098;-72
2022/01/01 10:22:35;;;;;;;7.05;5.00;;;;;;;15.35;49.42;95642.59;5006210;28;20040;-76
2022/01/01 10:27:59;;;;;;;7.13;5.13;;;;;;;18.29;39.30;95564.94;5003766;28;20151;-75
2022/01/01 10:30:36;;;;;;;6.75;3.85;;;;;;;16.23;43.83;95568.50;5006245;28;20030;-75
2022/01/01 10:33:15;;;;;;;5.68;4.68;;;;;;;14.97;47.11;95544.84;5005520;28;20080;-72
2022/01/01 10:35:46;;;;;;;8.27;5.20;;;;;;;14.61;48.23;95556.91;5006698;28;20037;-72
2022/01/01 10:38:18;;;;;;;6.70;4.32;;;;;;;15.14;47.67;95640.56;5005643;28;20699;-73
2022/01/01 10:40:45;;;;;;;6.20;4.28;;;;;;;17.63;41.38;95594.75;5006345;28;20060;-72
2022/01/01 10:43:11;;;;;;;7.07;4.70;;;;;;;21.10;33.63;95579.78;5004938;28;20037;-71
2022/01/01 10:45:42;;;;;;;6.65;4.78;;;;;;;21.05;33.43;95610.88;5005815;28;20110;-72
2022/01/01 10:48:17;;;;;;;12.30;8.13;;;;;;;22.68;30.31;95590.53;5005553;28;20444;-71
2022/01/01 10:50:44;;;;;;;9.43;6.30;;;;;;;22.30;30.62;95582.09;5005468;28;20037;-72
2022/01/01 10:53:12;;;;;;;7.00;4.63;;;;;;;22.04;30.59;95601.31;4997298;28;20046;-73
2022/01/01 10:55:43;;;;;;;5.85;4.10;;;;;;;19.63;34.10;95612.59;4995160;28;20109;-72
2022/01/01 10:58:08;;;;;;;7.27;4.70;;;;;;;17.75;36.34;95499.00;5013596;28;20046;-73
2022/01/01 11:00:41;;;;;;;6.57;4.47;;;;;;;17.71;37.61;95567.19;5007650;28;20085;-73
2022/01/01 11:03:15;;;;;;;7.07;4.13;;;;;;;17.25;39.02;95600.47;5006162;28;20052;-71
2022/01/01 11:05:41;;;;;;;7.72;4.40;;;;;;;17.41;38.50;95567.00;5009762;28;20030;-73
2022/01/01 11:08:08;;;;;;;5.93;4.60;;;;;;;18.84;36.36;95595.13;5012373;28;20033;-73
2022/01/01 11:10:35;;;;;;;6.45;4.22;;;;;;;18.40;36.46;95602.34;5008665;28;20022;-73
2022/01/01 11:13:02;;;;;;;7.00;3.90;;;;;;;17.44;38.16;95611.03;5008454;28;20366;-75
2022/01/01 11:15:28;;;;;;;7.70;4.95;;;;;;;17.40;37.77;95551.50;5008351;28;20113;-75
2022/01/01 11:17:56;;;;;;;6.25;4.40;;;;;;;21.45;31.48;95541.44;5011860;28;20409;-72
2022/01/01 11:20:23;;;;;;;6.97;4.70;;;;;;;20.80;30.98;95546.03;5008518;28;20099;-74
2022/01/01 11:22:49;;;;;;;5.80;4.18;;;;;;;18.12;36.20;95604.72;5008175;28;20544;-74